Terminal Aerodrome Forecast
Issued by NWS

Home | Current Version | Previous Version | Graphics & Text | Print | Product List | Glossary On
Versions: 1 2 3 4 5 6 7 8 9 10 11 12 13 14 15 16
259
FTUS43 KICT 250310 AAA
TAFSLN
TAF AMD
KSLN 250310Z 2503/2524 VRB05KT P6SM VCSH SCT015 BKN150
      TEMPO 2503/2506 BKN015
     FM250600 24007KT P6SM VCSH SCT015 BKN040
      TEMPO 2506/2508 TSRA BKN015CB
     FM251000 33015G25KT P6SM SCT015 BKN250
     FM251500 34018G28KT P6SM SKC=

USA.gov is the U.S. government's official web portal to all federal, state and local government web resources and services.